CheckWX is a tool to help pilots better visualize weather data.  It is not intended as a substitute for an official pre-flight weather briefing.

14:16:11 UTC

HRYR METAR
Kigali International Airport
Kigali, Rwanda
Current

46 mins ago

HRYR 221330Z 31008KT 9999 SCT025 BKN100 19/16 Q1019 NOSIG
Observed
Apr-22 @ 13:30 UTC
Wind
  • 310° at 8 KTS
Visibility
10,000+ meters
Flight Rules
VFR
Cloud Levels
  • Scattered at 2,500' AGL
  • Broken at 10,000' AGL
Temperature
19°C / 66°F
Dewpoint
16°C / 61°F
Humidity
83%
Altimeter
30.09" Hg
Pressure
1018.92 hPa
Previous

2 hours ago

HRYR 221230Z 32007KT 9999 -RA FEW005 SCT025 OVC100 17/16 Q1020
Observed
Apr-22 @ 12:30 UTC
Wind
  • 320° at 7 KTS
Visibility
10,000+ meters
Flight Rules
VFR
Conditions
Light Rain
Cloud Levels
  • Few at 500' AGL
  • Scattered at 2,500' AGL
  • Overcast at 10,000' AGL
Temperature
17°C / 63°F
Dewpoint
16°C / 61°F
Humidity
94%
Altimeter
30.12" Hg
Pressure
1019.92 hPa
Previous

2 hours ago

HRYR 221200Z 31007KT 9999 -RA FEW005 SCT025 OVC100 17/16 Q1021 NOSIG
Observed
Apr-22 @ 12:00 UTC
Wind
  • 310° at 7 KTS
Visibility
10,000+ meters
Flight Rules
VFR
Conditions
Light Rain
Cloud Levels
  • Few at 500' AGL
  • Scattered at 2,500' AGL
  • Overcast at 10,000' AGL
Temperature
17°C / 63°F
Dewpoint
16°C / 61°F
Humidity
94%
Altimeter
30.15" Hg
Pressure
1020.92 hPa